TimeEDT,TemperatureF,Dew PointF,Humidity,Sea Level PressureIn,VisibilityMPH,Wind Direction,Wind SpeedMPH,Gust SpeedMPH,PrecipitationIn,Events,Conditions,WindDirDegrees,DateUTC
12:54 AM,36.0,32.0,86,29.92,10.0,WNW,5.8,-,N/A,,Clear,300,2012-10-17 04:54:00
1:54 AM,39.0,34.0,82,29.91,10.0,NW,3.5,-,N/A,,Clear,320,2012-10-17 05:54:00
2:54 AM,39.9,30.0,68,29.91,10.0,NNW,5.8,-,N/A,,Clear,330,2012-10-17 06:54:00
3:54 AM,37.9,30.9,76,29.91,10.0,NW,8.1,-,N/A,,Clear,310,2012-10-17 07:54:00
4:54 AM,39.0,30.0,70,29.91,10.0,NNW,8.1,-,N/A,,Clear,340,2012-10-17 08:54:00
5:54 AM,39.0,30.0,70,29.92,10.0,NW,4.6,-,N/A,,Clear,320,2012-10-17 09:54:00
6:54 AM,39.0,30.0,70,29.94,10.0,NNW,6.9,-,N/A,,Clear,330,2012-10-17 10:54:00
7:54 AM,41.0,30.9,67,29.96,10.0,North,4.6,-,N/A,,Clear,360,2012-10-17 11:54:00
8:54 AM,44.1,30.9,60,29.97,10.0,Variable,5.8,-,N/A,,Clear,0,2012-10-17 12:54:00
9:54 AM,46.9,33.1,59,29.99,10.0,Calm,Calm,-,N/A,,Clear,0,2012-10-17 13:54:00
10:54 AM,50.0,30.0,46,29.98,10.0,East,3.5,-,N/A,,Clear,100,2012-10-17 14:54:00
11:54 AM,54.0,33.1,45,29.97,10.0,Calm,Calm,-,N/A,,Clear,0,2012-10-17 15:54:00
12:54 PM,55.0,28.9,37,29.95,10.0,WNW,3.5,-,N/A,,Clear,290,2012-10-17 16:54:00
1:54 PM,57.9,32.0,37,29.93,10.0,West,9.2,-,N/A,,Clear,270,2012-10-17 17:54:00
2:54 PM,59.0,32.0,36,29.93,10.0,NW,6.9,-,N/A,,Clear,310,2012-10-17 18:54:00
3:54 PM,59.0,32.0,36,29.94,10.0,WNW,5.8,-,N/A,,Clear,300,2012-10-17 19:54:00
4:54 PM,57.9,34.0,41,29.95,10.0,West,4.6,-,N/A,,Clear,260,2012-10-17 20:54:00
5:54 PM,54.0,35.1,49,29.96,10.0,West,3.5,-,N/A,,Clear,260,2012-10-17 21:54:00
6:54 PM,52.0,35.1,53,29.98,10.0,West,4.6,-,N/A,,Clear,260,2012-10-17 22:54:00
7:54 PM,50.0,34.0,54,30.00,10.0,WNW,4.6,-,N/A,,Clear,290,2012-10-17 23:54:00
8:54 PM,48.9,35.1,59,30.01,10.0,West,3.5,-,N/A,,Clear,280,2012-10-18 00:54:00
9:54 PM,50.0,33.1,52,30.01,10.0,West,5.8,-,N/A,,Clear,260,2012-10-18 01:54:00
10:54 PM,50.0,30.9,48,30.01,10.0,West,6.9,-,N/A,,Clear,270,2012-10-18 02:54:00
11:54 PM,46.9,33.1,59,30.01,10.0,WSW,4.6,-,N/A,,Clear,240,2012-10-18 03:54:00